createdAt,value
2018-04-10T00:02:20.918Z,47.83
2018-04-10T00:04:54.701Z,48.23
2018-04-10T00:07:29.145Z,48.50
2018-04-10T00:10:02.830Z,44.53
2018-04-10T00:12:36.551Z,44.63
2018-04-10T00:15:11.087Z,48.53
2018-04-10T00:17:44.980Z,46.67
2018-04-10T00:20:18.631Z,51.33
2018-04-10T00:22:52.383Z,48.13
2018-04-10T00:25:26.083Z,49.87
2018-04-10T00:27:59.590Z,50.13
2018-04-10T00:30:33.286Z,48.83
2018-04-10T00:33:06.858Z,49.53
2018-04-10T00:35:40.474Z,53.13
2018-04-10T00:38:14.202Z,56.33
2018-04-10T00:40:48.414Z,50.47
2018-04-10T00:43:22.083Z,53.57
2018-04-10T00:45:55.845Z,51.27
2018-04-10T00:48:30.309Z,50.60
2018-04-10T00:51:04.126Z,49.93
2018-04-10T00:53:37.711Z,54.40
2018-04-10T00:56:11.446Z,54.03
2018-04-10T00:58:45.055Z,50.90
2018-04-10T01:01:18.557Z,51.13
2018-04-10T01:03:52.251Z,48.60
2018-04-10T01:06:26.058Z,52.23
2018-04-10T01:08:59.570Z,50.93
2018-04-10T01:11:34.067Z,49.90
2018-04-10T01:14:07.885Z,52.03
2018-04-10T01:16:41.691Z,53.37
2018-04-10T01:19:15.973Z,50.83
2018-04-10T01:21:50.526Z,53.33
2018-04-10T01:24:24.139Z,51.10
2018-04-10T01:26:57.766Z,54.97
2018-04-10T01:29:31.535Z,51.40
2018-04-10T01:32:05.949Z,50.67
2018-04-10T01:34:39.754Z,57.00
2018-04-10T01:37:13.566Z,49.67
2018-04-10T01:39:47.577Z,51.90
2018-04-10T01:42:21.386Z,52.80
2018-04-10T01:44:55.002Z,51.40
2018-04-10T01:47:28.688Z,49.90
2018-04-10T01:50:02.594Z,50.03
2018-04-10T01:52:36.262Z,51.37
2018-04-10T01:55:09.886Z,52.37
2018-04-10T01:57:43.671Z,50.03
2018-04-10T02:00:17.405Z,50.27
2018-04-10T02:02:51.034Z,51.00
2018-04-10T02:05:24.698Z,49.87
2018-04-10T02:07:58.405Z,48.30
2018-04-10T02:10:32.039Z,54.03
2018-04-10T02:13:05.823Z,50.67
2018-04-10T02:15:39.627Z,50.03
2018-04-10T02:18:13.138Z,54.03
2018-04-10T02:20:46.826Z,49.50
2018-04-10T02:23:20.627Z,47.43
2018-04-10T02:25:54.364Z,47.83
2018-04-10T02:28:28.038Z,48.07
2018-04-10T02:31:01.644Z,50.00
2018-04-10T02:33:35.239Z,45.80
2018-04-10T02:36:08.849Z,52.93
2018-04-10T02:38:42.645Z,46.60
2018-04-10T02:41:16.182Z,47.63
2018-04-10T02:43:49.718Z,50.47
2018-04-10T02:46:23.255Z,50.23
2018-04-10T02:48:56.917Z,49.53
2018-04-10T02:51:30.572Z,49.20
2018-04-10T02:54:04.249Z,47.53
2018-04-10T02:56:37.958Z,48.37
2018-04-10T02:59:11.747Z,51.03
2018-04-10T03:01:45.465Z,52.57
2018-04-10T03:04:19.062Z,52.80
2018-04-10T03:06:53.690Z,50.07
2018-04-10T03:09:27.494Z,48.30
2018-04-10T03:12:01.298Z,49.93
2018-04-10T03:14:35.106Z,47.33
2018-04-10T03:17:09.621Z,52.17
2018-04-10T03:19:43.335Z,51.33
2018-04-10T03:22:17.028Z,52.90
2018-04-10T03:24:50.732Z,51.07
2018-04-10T03:27:24.477Z,51.90
2018-04-10T03:29:58.134Z,51.87
2018-04-10T03:32:32.157Z,53.30
2018-04-10T03:35:05.779Z,55.07
2018-04-10T03:37:39.356Z,54.57
2018-04-10T03:40:12.970Z,54.53
2018-04-10T03:42:46.753Z,55.03
2018-04-10T03:45:20.365Z,55.27
2018-04-10T03:47:54.180Z,47.20
2018-04-10T03:50:27.994Z,51.87
2018-04-10T03:53:02.618Z,52.23
2018-04-10T03:55:36.399Z,48.60
2018-04-10T03:58:10.942Z,51.40
2018-04-10T04:00:44.430Z,54.40
2018-04-10T04:03:18.742Z,53.90
2018-04-10T04:05:53.257Z,53.77
2018-04-10T04:08:26.773Z,53.30
2018-04-10T04:11:00.459Z,53.17
2018-04-10T04:13:34.106Z,50.67
2018-04-10T04:16:08.119Z,56.03
2018-04-10T04:18:53.618Z,51.67
2018-04-10T04:24:30.013Z,53.63
2018-04-10T04:27:03.605Z,55.23
2018-04-10T04:29:37.447Z,51.73
2018-04-10T04:32:11.258Z,56.50
2018-04-10T04:34:44.970Z,56.40
2018-04-10T04:37:18.669Z,57.53
2018-04-10T04:39:52.302Z,48.30
2018-04-10T04:42:26.061Z,51.47
2018-04-10T04:44:59.869Z,54.50
2018-04-10T04:47:33.683Z,54.43
2018-04-10T04:50:07.282Z,48.30
2018-04-10T04:52:40.883Z,48.23
2018-04-10T04:55:14.708Z,47.23
2018-04-10T04:57:48.483Z,45.87
2018-04-10T05:00:22.901Z,47.63
2018-04-10T05:02:56.709Z,46.43
2018-04-10T05:05:31.038Z,45.03
2018-04-10T05:08:04.814Z,46.73
2018-04-10T05:10:38.533Z,48.30
2018-04-10T05:13:12.214Z,41.53
2018-04-10T05:15:45.942Z,43.93
2018-04-10T05:18:20.446Z,44.80
2018-04-10T05:20:54.180Z,42.00
2018-04-10T05:23:27.978Z,40.50
2018-04-10T05:26:01.674Z,43.73
2018-04-10T05:28:35.345Z,45.13
2018-04-10T05:31:08.963Z,43.00
2018-04-10T05:33:42.651Z,50.20
2018-04-10T05:36:16.385Z,46.30
2018-04-10T05:38:50.199Z,44.33
2018-04-10T05:41:24.002Z,41.80
2018-04-10T05:43:57.803Z,44.57
2018-04-10T05:46:31.499Z,39.50
2018-04-10T05:49:05.078Z,40.30
2018-04-10T05:51:39.635Z,41.90
2018-04-10T05:54:13.298Z,42.87
2018-04-10T05:56:46.865Z,40.53
2018-04-10T05:59:20.438Z,40.40
2018-04-10T06:01:54.850Z,42.13
2018-04-10T06:04:28.666Z,43.07
2018-04-10T06:07:02.471Z,41.50
2018-04-10T06:09:36.061Z,39.47
2018-04-10T06:12:09.867Z,42.33
2018-04-10T06:14:43.560Z,43.00
2018-04-10T06:17:17.167Z,41.03
2018-04-10T06:19:50.874Z,43.40
2018-04-10T06:22:24.527Z,45.33
2018-04-10T06:24:58.291Z,41.37
2018-04-10T06:27:32.594Z,41.33
2018-04-10T06:30:06.993Z,41.33
2018-04-10T06:32:40.934Z,43.03
2018-04-10T06:35:14.603Z,37.70
2018-04-10T06:37:48.218Z,42.53
2018-04-10T06:40:21.950Z,41.60
2018-04-10T06:42:55.614Z,41.80
2018-04-10T06:45:30.042Z,39.77
2018-04-10T06:48:03.736Z,41.70
2018-04-10T06:50:37.374Z,41.53
2018-04-10T06:53:10.973Z,41.90
2018-04-10T06:55:44.719Z,37.80
2018-04-10T06:58:18.374Z,38.53
2018-04-10T07:00:52.179Z,41.70
2018-04-10T07:03:25.807Z,36.37
2018-04-10T07:05:59.364Z,37.00
2018-04-10T07:08:33.690Z,41.27
2018-04-10T07:11:07.217Z,37.47
2018-04-10T07:13:41.000Z,38.83
2018-04-10T07:16:14.801Z,37.40
2018-04-10T07:18:49.125Z,42.63
2018-04-10T07:21:22.654Z,36.87
2018-04-10T07:23:56.241Z,43.57
2018-04-10T07:26:29.893Z,40.00
2018-04-10T07:29:04.425Z,38.73
2018-04-10T07:31:38.256Z,35.07
2018-04-10T07:34:12.771Z,34.77
2018-04-10T07:36:46.484Z,36.73
2018-04-10T07:39:20.082Z,36.97
2018-04-10T07:41:54.578Z,33.43
2018-04-10T07:44:28.273Z,34.50
2018-04-10T07:47:02.106Z,34.10
2018-04-10T07:49:35.918Z,33.73
2018-04-10T07:52:09.511Z,31.70
2018-04-10T07:54:43.047Z,34.10
2018-04-10T07:57:16.526Z,33.47
2018-04-10T07:59:50.197Z,33.67
2018-04-10T08:02:23.822Z,30.80
2018-04-10T08:04:57.521Z,32.77
2018-04-10T08:07:32.021Z,30.47
2018-04-10T08:10:05.711Z,31.40
2018-04-10T08:12:39.546Z,35.37
2018-04-10T08:15:13.358Z,42.00
2018-04-10T08:17:46.862Z,33.07
2018-04-10T08:20:20.559Z,34.73
2018-04-10T08:22:54.227Z,37.17
2018-04-10T08:25:27.966Z,30.03
2018-04-10T08:28:01.976Z,32.67
2018-04-10T08:30:35.781Z,36.40
2018-04-10T08:33:09.486Z,32.07
2018-04-10T08:37:45.338Z,34.60
2018-04-10T08:40:19.260Z,30.70
2018-04-10T08:42:52.864Z,34.87
2018-04-10T08:45:26.634Z,30.33
2018-04-10T08:48:00.130Z,34.77
2018-04-10T08:50:33.832Z,31.43
2018-04-10T08:53:07.469Z,32.67
2018-04-10T08:55:41.271Z,32.07
2018-04-10T08:58:15.279Z,29.27
2018-04-10T09:00:48.983Z,32.33
2018-04-10T09:03:22.895Z,34.87
2018-04-10T09:05:57.198Z,33.50
2018-04-10T09:08:31.114Z,34.73
2018-04-10T09:11:04.644Z,37.57
2018-04-10T09:13:38.314Z,33.43
2018-04-10T09:16:11.969Z,34.90
2018-04-10T09:18:45.542Z,32.67
2018-04-10T09:21:19.331Z,33.27
2018-04-10T09:23:53.134Z,36.93
2018-04-10T09:26:26.822Z,34.17
2018-04-10T09:29:01.226Z,35.23
2018-04-10T09:31:34.950Z,30.70
2018-04-10T09:34:08.758Z,34.63
2018-04-10T09:36:43.187Z,32.80
2018-04-10T09:39:16.981Z,35.17
2018-04-10T09:41:50.499Z,38.53
2018-04-10T09:44:24.059Z,35.93
2018-04-10T09:46:58.615Z,34.30
2018-04-10T09:49:32.307Z,36.30
2018-04-10T09:52:06.018Z,35.73
2018-04-10T09:54:39.686Z,34.10
2018-04-10T09:57:13.411Z,34.90
2018-04-10T09:59:47.126Z,39.13
2018-04-10T10:02:20.830Z,35.13
2018-04-10T10:04:54.502Z,35.17
2018-04-10T10:07:28.942Z,37.53
2018-04-10T10:10:02.658Z,36.57
2018-04-10T10:12:36.287Z,39.37
2018-04-10T10:15:09.862Z,37.40
2018-04-10T10:17:43.458Z,35.30
2018-04-10T10:20:17.068Z,36.93
2018-04-10T10:22:50.957Z,34.43
2018-04-10T10:25:25.490Z,37.33
2018-04-10T10:27:59.289Z,34.77
2018-04-10T10:30:33.106Z,35.80
2018-04-10T10:33:07.694Z,37.03
2018-04-10T10:35:42.842Z,37.60
2018-04-10T10:38:16.422Z,35.50
2018-04-10T10:40:49.963Z,37.40
2018-04-10T10:43:23.766Z,38.13
2018-04-10T10:45:57.367Z,37.33
2018-04-10T10:48:32.609Z,38.63
2018-04-10T10:51:06.254Z,37.90
2018-04-10T10:53:39.907Z,38.17
2018-04-10T10:56:13.606Z,37.83
2018-04-10T10:58:48.117Z,40.73
2018-04-10T11:01:22.655Z,37.40
2018-04-10T11:03:56.292Z,35.80
2018-04-10T11:06:30.181Z,34.63
2018-04-10T11:09:03.793Z,42.33
2018-04-10T11:11:37.282Z,35.17
2018-04-10T11:14:11.066Z,34.33
2018-04-10T11:16:44.870Z,35.47
2018-04-10T11:19:18.584Z,36.53
2018-04-10T11:21:52.417Z,34.47
2018-04-10T11:24:26.109Z,36.60
2018-04-10T11:27:00.514Z,34.67
2018-04-10T11:29:34.193Z,34.10
2018-04-10T11:32:07.778Z,32.67
2018-04-10T11:34:41.723Z,33.97
2018-04-10T11:37:16.166Z,31.77
2018-04-10T11:42:52.390Z,47.67
2018-04-10T11:45:26.119Z,31.97
2018-04-10T11:47:59.793Z,30.73
2018-04-10T11:50:33.458Z,31.33
2018-04-10T11:53:07.019Z,33.47
2018-04-10T11:55:40.822Z,34.10
2018-04-10T11:58:15.214Z,32.10
2018-04-10T12:00:48.877Z,35.13
2018-04-10T12:03:22.650Z,33.17
2018-04-10T12:05:56.379Z,34.93
2018-04-10T12:08:30.054Z,37.20
2018-04-10T12:11:04.360Z,35.17
2018-04-10T12:13:37.914Z,33.97
2018-04-10T12:16:11.450Z,42.67
2018-04-10T12:18:44.950Z,35.90
2018-04-10T12:21:18.502Z,39.10
2018-04-10T12:23:52.270Z,34.50
2018-04-10T12:26:26.778Z,35.03
2018-04-10T12:29:00.693Z,37.57
2018-04-10T12:31:34.215Z,37.43
2018-04-10T12:34:07.975Z,33.73
2018-04-10T12:36:41.755Z,31.53
2018-04-10T12:39:15.454Z,35.10
2018-04-10T12:41:49.900Z,34.03
2018-04-10T12:44:23.738Z,31.90
2018-04-10T12:46:57.542Z,32.50
2018-04-10T12:49:31.350Z,30.07
2018-04-10T12:52:04.999Z,32.13
2018-04-10T12:54:38.751Z,31.63
2018-04-10T12:57:12.554Z,36.83
2018-04-10T12:59:46.366Z,35.53
2018-04-10T13:02:20.195Z,29.10
2018-04-10T13:04:53.969Z,25.97
2018-04-10T13:07:27.666Z,30.50
2018-04-10T13:10:01.221Z,31.70
2018-04-10T13:12:35.627Z,35.73
2018-04-10T13:15:09.209Z,34.90
2018-04-10T13:17:43.817Z,35.97
2018-04-10T13:20:17.634Z,32.03
2018-04-10T13:22:51.232Z,33.83
2018-04-10T13:25:25.030Z,31.10
2018-04-10T13:27:58.842Z,29.93
2018-04-10T13:30:32.610Z,29.43
2018-04-10T13:33:06.245Z,27.27
2018-04-10T13:35:40.249Z,33.53
2018-04-10T13:38:13.865Z,29.63
2018-04-10T13:40:47.459Z,34.83
2018-04-10T13:43:21.275Z,40.00
2018-04-10T13:45:55.072Z,36.63
2018-04-10T13:48:28.693Z,29.77
2018-04-10T13:51:02.502Z,34.07
2018-04-10T13:53:36.122Z,32.17
2018-04-10T13:56:10.082Z,32.63
2018-04-10T13:58:43.886Z,32.53
2018-04-10T14:01:17.701Z,31.77
2018-04-10T14:03:51.321Z,31.50
2018-04-10T14:06:24.855Z,33.83
2018-04-10T14:08:58.503Z,32.53
2018-04-10T14:11:32.099Z,35.87
2018-04-10T14:14:06.117Z,35.33
2018-04-10T14:16:39.710Z,36.10
2018-04-10T14:19:13.522Z,33.03
2018-04-10T14:21:47.173Z,32.43
2018-04-10T14:24:20.953Z,32.27
2018-04-10T14:26:54.527Z,32.63
2018-04-10T14:29:28.330Z,30.87
2018-04-10T14:32:02.130Z,32.53
2018-04-10T14:34:36.650Z,37.20
2018-04-10T14:37:10.182Z,35.90
2018-04-10T14:39:44.457Z,33.80
2018-04-10T14:42:18.418Z,36.47
2018-04-10T14:44:52.106Z,32.80
2018-04-10T14:47:25.791Z,32.43
2018-04-10T14:49:59.605Z,39.63
2018-04-10T14:52:33.262Z,39.43
2018-04-10T14:55:06.910Z,34.53
2018-04-10T14:57:40.463Z,35.77
2018-04-10T15:00:13.993Z,35.10
2018-04-10T15:02:47.666Z,30.80
2018-04-10T15:05:21.230Z,29.83
2018-04-10T15:07:54.852Z,36.03
2018-04-10T15:10:28.601Z,35.90
2018-04-10T15:13:02.275Z,38.30
2018-04-10T15:15:36.815Z,33.63
2018-04-10T15:18:10.465Z,32.80
2018-04-10T15:20:44.139Z,32.13
2018-04-10T15:23:18.033Z,31.80
2018-04-10T15:25:51.554Z,28.27
2018-04-10T15:28:25.061Z,27.60
2018-04-10T15:30:58.847Z,30.17
2018-04-10T15:33:32.594Z,30.07
2018-04-10T15:36:06.246Z,23.80
2018-04-10T15:38:39.845Z,25.60
2018-04-10T15:41:13.653Z,31.67
2018-04-10T15:43:47.455Z,32.30
2018-04-10T15:46:21.878Z,24.40
2018-04-10T15:48:55.479Z,25.77
2018-04-10T15:51:30.000Z,27.40
2018-04-10T15:54:03.701Z,27.40
2018-04-10T15:56:37.510Z,26.43
2018-04-10T15:59:11.110Z,28.93
2018-04-10T16:01:45.688Z,28.10
2018-04-10T16:04:20.158Z,27.90
2018-04-10T16:06:53.953Z,25.57
2018-04-10T16:09:27.673Z,26.60
2018-04-10T16:12:01.254Z,26.53
2018-04-10T16:14:34.970Z,28.77
2018-04-10T16:17:08.548Z,27.47
2018-04-10T16:19:42.378Z,26.77
2018-04-10T16:22:16.145Z,25.73
2018-04-10T16:24:49.784Z,30.90
2018-04-10T16:27:23.382Z,30.37
2018-04-10T16:29:57.219Z,28.70
2018-04-10T16:32:31.806Z,32.60
2018-04-10T16:35:06.226Z,29.03
2018-04-10T16:37:39.934Z,28.27
2018-04-10T16:40:13.865Z,29.10
2018-04-10T16:42:48.153Z,29.27
2018-04-10T16:45:21.870Z,33.10
2018-04-10T16:47:55.693Z,28.93
2018-04-10T16:50:29.261Z,34.43
2018-04-10T16:53:03.073Z,30.07
2018-04-10T16:55:37.541Z,30.77
2018-04-10T16:58:11.302Z,31.53
2018-04-10T17:00:44.801Z,37.47
2018-04-10T17:03:18.390Z,31.50
2018-04-10T17:05:52.107Z,29.37
2018-04-10T17:08:26.415Z,29.13
2018-04-10T17:11:00.124Z,34.20
2018-04-10T17:13:33.709Z,29.97
2018-04-10T17:16:07.797Z,29.50
2018-04-10T17:18:41.556Z,31.47
2018-04-10T17:21:15.214Z,34.13
2018-04-10T17:23:48.737Z,24.73
2018-04-10T17:26:23.029Z,32.23
2018-04-10T17:28:56.775Z,32.13
2018-04-10T17:31:30.306Z,44.17
2018-04-10T17:34:03.835Z,28.23
2018-04-10T17:36:38.374Z,33.40
2018-04-10T17:39:12.070Z,33.23
2018-04-10T17:41:45.622Z,30.70
2018-04-10T17:44:20.070Z,27.93
2018-04-10T17:46:53.805Z,31.37
2018-04-10T17:49:27.614Z,29.67
2018-04-10T17:52:01.109Z,30.60
2018-04-10T17:54:35.605Z,29.67
2018-04-10T17:57:09.237Z,31.63
2018-04-10T17:59:43.109Z,25.97
2018-04-10T18:02:16.843Z,29.40
2018-04-10T18:04:50.674Z,34.53
2018-04-10T18:07:24.333Z,35.47
2018-04-10T18:09:58.249Z,28.10
2018-04-10T18:12:32.088Z,28.93
2018-04-10T18:15:05.681Z,26.83
2018-04-10T18:17:40.977Z,26.90
2018-04-10T18:20:15.532Z,24.03
2018-04-10T18:22:49.340Z,28.63
2018-04-10T18:25:22.869Z,26.57
2018-04-10T18:27:56.750Z,26.13
2018-04-10T18:30:30.305Z,30.27
2018-04-10T18:33:04.150Z,25.23
2018-04-10T18:35:38.770Z,28.33
2018-04-10T18:38:12.574Z,25.57
2018-04-10T18:40:46.390Z,23.60
2018-04-10T18:43:21.007Z,25.73
2018-04-10T18:45:54.607Z,30.17
2018-04-10T18:48:28.214Z,24.90
2018-04-10T18:51:01.781Z,24.87
2018-04-10T18:53:35.525Z,22.20
2018-04-10T18:56:09.418Z,25.03
2018-04-10T18:58:43.221Z,26.30
2018-04-10T19:01:17.530Z,25.10
2018-04-10T19:03:51.452Z,27.00
2018-04-10T19:06:25.762Z,26.63
2018-04-10T19:08:59.537Z,23.53
2018-04-10T19:11:33.370Z,28.53
2018-04-10T19:14:07.298Z,25.77
2018-04-10T19:16:41.049Z,30.63
2018-04-10T19:19:14.762Z,24.93
2018-04-10T19:21:48.547Z,24.80
2018-04-10T19:24:22.370Z,24.73
2018-04-10T19:26:56.193Z,26.67
2018-04-10T19:29:29.734Z,28.13
2018-04-10T19:32:03.523Z,26.37
2018-04-10T19:34:37.325Z,29.60
2018-04-10T19:37:11.151Z,26.20
2018-04-10T19:39:44.708Z,26.30
2018-04-10T19:42:18.420Z,28.20
2018-04-10T19:44:52.125Z,24.47
2018-04-10T19:47:25.697Z,27.87
2018-04-10T19:49:59.442Z,29.87
2018-04-10T19:52:33.030Z,26.63
2018-04-10T19:55:06.699Z,28.67
2018-04-10T19:57:40.337Z,26.03
2018-04-10T20:00:13.909Z,27.70
2018-04-10T20:02:47.523Z,30.15
2018-04-10T20:05:21.350Z,27.53
2018-04-10T20:07:55.643Z,27.87
2018-04-10T20:10:30.058Z,28.00
2018-04-10T20:13:03.605Z,29.83
2018-04-10T20:15:37.296Z,27.80
2018-04-10T20:18:11.202Z,27.37
2018-04-10T20:20:44.867Z,27.27
2018-04-10T20:23:18.603Z,28.67
2018-04-10T20:25:52.306Z,24.77
2018-04-10T20:28:26.010Z,27.93
2018-04-10T20:30:59.605Z,29.10
2018-04-10T20:33:33.414Z,28.20
2018-04-10T20:36:07.015Z,27.60
2018-04-10T20:38:41.637Z,26.63
2018-04-10T20:41:15.299Z,28.63
2018-04-10T20:43:49.065Z,29.33
2018-04-10T20:46:22.608Z,31.48
2018-04-10T20:48:56.278Z,26.00
2018-04-10T20:51:29.858Z,28.33
2018-04-10T20:54:04.174Z,32.73
2018-04-10T20:56:37.874Z,27.43
2018-04-10T20:59:12.498Z,26.67
2018-04-10T21:01:46.306Z,27.03
2018-04-10T21:04:20.931Z,24.80
2018-04-10T21:06:54.726Z,29.97
2018-04-10T21:09:28.496Z,29.90
2018-04-10T21:12:02.142Z,25.10
2018-04-10T21:14:35.937Z,31.03
2018-04-10T21:17:09.745Z,24.63
2018-04-10T21:19:43.263Z,28.00
2018-04-10T21:22:17.018Z,28.53
2018-04-10T21:24:51.554Z,30.93
2018-04-10T21:27:25.139Z,26.33
2018-04-10T21:29:58.779Z,29.17
2018-04-10T21:32:33.058Z,29.63
2018-04-10T21:35:06.881Z,31.37
2018-04-10T21:37:40.612Z,30.23
2018-04-10T21:40:14.309Z,30.93
2018-04-10T21:42:53.595Z,26.67
2018-04-10T21:45:27.338Z,29.17
2018-04-10T21:48:01.009Z,29.57
2018-04-10T21:50:34.531Z,27.70
2018-04-10T21:53:08.141Z,32.20
2018-04-10T21:55:41.658Z,26.60
2018-04-10T21:58:15.349Z,28.47
2018-04-10T22:00:48.990Z,24.17
2018-04-10T22:03:22.509Z,27.53
2018-04-10T22:05:56.075Z,29.60
2018-04-10T22:08:29.741Z,29.33
2018-04-10T22:11:03.354Z,28.50
2018-04-10T22:13:36.905Z,25.87
2018-04-10T22:16:10.445Z,23.33
2018-04-10T22:18:43.953Z,27.90
2018-04-10T22:21:17.752Z,27.50
2018-04-10T22:23:51.358Z,27.63
2018-04-10T22:26:25.675Z,24.87
2018-04-10T22:28:59.336Z,25.00
2018-04-10T22:31:32.894Z,26.20
2018-04-10T22:34:06.763Z,26.40
2018-04-10T22:36:40.553Z,26.13
2018-04-10T22:39:14.365Z,26.40
2018-04-10T22:41:48.662Z,28.53
2018-04-10T22:44:22.446Z,26.17
2018-04-10T22:46:55.955Z,26.23
2018-04-10T22:49:29.451Z,25.70
2018-04-10T22:52:03.187Z,27.07
2018-04-10T22:54:37.598Z,27.17
2018-04-10T22:57:11.236Z,26.67
2018-04-10T22:59:44.878Z,25.33
2018-04-10T23:02:18.608Z,23.50
2018-04-10T23:04:52.302Z,25.33
2018-04-10T23:07:26.028Z,24.00
2018-04-10T23:09:59.717Z,23.60
2018-04-10T23:12:33.335Z,22.50
2018-04-10T23:15:07.055Z,22.93
2018-04-10T23:17:40.864Z,23.60
2018-04-10T23:20:15.283Z,25.43
2018-04-10T23:22:49.694Z,25.30
2018-04-10T23:25:23.502Z,26.50
2018-04-10T23:27:57.111Z,23.70
2018-04-10T23:30:30.917Z,21.73
2018-04-10T23:33:04.931Z,23.90
2018-04-10T23:35:38.538Z,27.30
2018-04-10T23:38:12.167Z,21.93
2018-04-10T23:40:46.642Z,24.13
2018-04-10T23:43:20.364Z,25.40
2018-04-10T23:45:53.938Z,23.20
2018-04-10T23:48:27.488Z,24.03
2018-04-10T23:51:01.170Z,22.60
2018-04-10T23:53:34.851Z,22.47
2018-04-10T23:56:08.479Z,23.13
2018-04-10T23:58:42.130Z,23.37
